sensor_id;sensor_type;location;lat;lon;timestamp;temperature;humidity
13330;DHT22;6734;48.638;8.896;2023-08-24T00:05:33;19.30;99.90
13330;DHT22;6734;48.638;8.896;2023-08-24T00:07:58;19.30;99.90
13330;DHT22;6734;48.638;8.896;2023-08-24T00:17:42;18.90;99.90
13330;DHT22;6734;48.638;8.896;2023-08-24T00:20:07;19.00;99.90
13330;DHT22;6734;48.638;8.896;2023-08-24T00:22:36;18.90;99.90
13330;DHT22;6734;48.638;8.896;2023-08-24T00:27:28;19.00;99.90
13330;DHT22;6734;48.638;8.896;2023-08-24T00:32:19;19.10;99.90
13330;DHT22;6734;48.638;8.896;2023-08-24T00:37:11;18.80;99.90
13330;DHT22;6734;48.638;8.896;2023-08-24T00:39:37;18.80;99.90
13330;DHT22;6734;48.638;8.896;2023-08-24T00:42:02;18.80;99.90
13330;DHT22;6734;48.638;8.896;2023-08-24T00:44:28;19.00;99.90
13330;DHT22;6734;48.638;8.896;2023-08-24T00:46:54;19.00;99.90
13330;DHT22;6734;48.638;8.896;2023-08-24T00:49:21;19.00;99.90
13330;DHT22;6734;48.638;8.896;2023-08-24T00:54:12;18.70;99.90
13330;DHT22;6734;48.638;8.896;2023-08-24T00:56:39;18.90;99.90
13330;DHT22;6734;48.638;8.896;2023-08-24T00:59:05;18.90;99.90
13330;DHT22;6734;48.638;8.896;2023-08-24T01:03:57;18.50;99.90
13330;DHT22;6734;48.638;8.896;2023-08-24T01:08:49;18.40;99.90
13330;DHT22;6734;48.638;8.896;2023-08-24T01:17:01;18.50;99.90
13330;DHT22;6734;48.638;8.896;2023-08-24T01:27:39;18.30;99.90
13330;DHT22;6734;48.638;8.896;2023-08-24T01:32:33;17.90;99.90
13330;DHT22;6734;48.638;8.896;2023-08-24T01:35:03;18.20;99.90
13330;DHT22;6734;48.638;8.896;2023-08-24T01:37:29;18.30;99.90
13330;DHT22;6734;48.638;8.896;2023-08-24T01:42:27;18.40;99.90
13330;DHT22;6734;48.638;8.896;2023-08-24T01:44:56;18.40;99.90
13330;DHT22;6734;48.638;8.896;2023-08-24T01:47:25;18.10;99.90
13330;DHT22;6734;48.638;8.896;2023-08-24T01:49:51;18.00;99.90
13330;DHT22;6734;48.638;8.896;2023-08-24T01:52:17;18.10;99.90
13330;DHT22;6734;48.638;8.896;2023-08-24T01:59:36;18.20;99.90
13330;DHT22;6734;48.638;8.896;2023-08-24T02:04:28;18.00;99.90
13330;DHT22;6734;48.638;8.896;2023-08-24T02:09:19;17.90;99.90
13330;DHT22;6734;48.638;8.896;2023-08-24T02:11:45;18.10;99.90
13330;DHT22;6734;48.638;8.896;2023-08-24T02:14:10;18.10;99.90
13330;DHT22;6734;48.638;8.896;2023-08-24T02:16:36;18.20;99.90
13330;DHT22;6734;48.638;8.896;2023-08-24T02:19:02;18.20;99.90
13330;DHT22;6734;48.638;8.896;2023-08-24T02:21:27;18.20;99.90
13330;DHT22;6734;48.638;8.896;2023-08-24T02:26:19;18.20;99.90
13330;DHT22;6734;48.638;8.896;2023-08-24T02:28:45;18.00;99.90
13330;DHT22;6734;48.638;8.896;2023-08-24T02:33:37;18.00;99.90
13330;DHT22;6734;48.638;8.896;2023-08-24T02:36:03;18.00;99.90
13330;DHT22;6734;48.638;8.896;2023-08-24T02:41:05;18.00;99.90
13330;DHT22;6734;48.638;8.896;2023-08-24T02:46:03;18.10;99.90
13330;DHT22;6734;48.638;8.896;2023-08-24T02:48:30;18.10;99.90
13330;DHT22;6734;48.638;8.896;2023-08-24T02:51:00;18.40;99.90
13330;DHT22;6734;48.638;8.896;2023-08-24T02:53:26;18.20;99.90
13330;DHT22;6734;48.638;8.896;2023-08-24T02:55:53;18.20;99.90
13330;DHT22;6734;48.638;8.896;2023-08-24T02:58:19;18.40;99.90
13330;DHT22;6734;48.638;8.896;2023-08-24T03:03:13;18.20;99.90
13330;DHT22;6734;48.638;8.896;2023-08-24T03:08:05;18.00;99.90
13330;DHT22;6734;48.638;8.896;2023-08-24T03:10:35;18.30;99.90
13330;DHT22;6734;48.638;8.896;2023-08-24T03:17:52;18.20;99.90
13330;DHT22;6734;48.638;8.896;2023-08-24T03:20:18;18.30;99.90
13330;DHT22;6734;48.638;8.896;2023-08-24T03:22:44;18.20;99.90
13330;DHT22;6734;48.638;8.896;2023-08-24T03:25:10;18.10;99.90
13330;DHT22;6734;48.638;8.896;2023-08-24T03:27:36;18.10;99.90
13330;DHT22;6734;48.638;8.896;2023-08-24T03:32:29;18.10;99.90
13330;DHT22;6734;48.638;8.896;2023-08-24T03:37:28;18.10;99.90
13330;DHT22;6734;48.638;8.896;2023-08-24T03:39:54;18.10;99.90
13330;DHT22;6734;48.638;8.896;2023-08-24T03:44:46;18.20;99.90
13330;DHT22;6734;48.638;8.896;2023-08-24T03:49:37;18.10;99.90
13330;DHT22;6734;48.638;8.896;2023-08-24T03:54:29;18.00;99.90
13330;DHT22;6734;48.638;8.896;2023-08-24T03:56:54;17.90;99.90
13330;DHT22;6734;48.638;8.896;2023-08-24T03:59:20;18.00;99.90
13330;DHT22;6734;48.638;8.896;2023-08-24T04:01:46;18.00;99.90
13330;DHT22;6734;48.638;8.896;2023-08-24T04:04:11;18.00;99.90
13330;DHT22;6734;48.638;8.896;2023-08-24T04:06:37;17.90;99.90
13330;DHT22;6734;48.638;8.896;2023-08-24T04:09:04;17.70;99.90
13330;DHT22;6734;48.638;8.896;2023-08-24T04:13:56;17.90;99.90
13330;DHT22;6734;48.638;8.896;2023-08-24T04:16:21;18.00;99.90
13330;DHT22;6734;48.638;8.896;2023-08-24T04:21:13;18.80;99.90
13330;DHT22;6734;48.638;8.896;2023-08-24T04:23:38;19.10;99.90
13330;DHT22;6734;48.638;8.896;2023-08-24T04:28:36;18.90;99.90
13330;DHT22;6734;48.638;8.896;2023-08-24T04:33:27;18.60;99.90
13330;DHT22;6734;48.638;8.896;2023-08-24T04:38:19;18.00;99.90
13330;DHT22;6734;48.638;8.896;2023-08-24T04:40:52;17.90;99.90
13330;DHT22;6734;48.638;8.896;2023-08-24T04:43:19;18.00;99.90
13330;DHT22;6734;48.638;8.896;2023-08-24T04:50:45;17.80;99.90
13330;DHT22;6734;48.638;8.896;2023-08-24T04:55:38;18.20;99.90
13330;DHT22;6734;48.638;8.896;2023-08-24T05:02:58;18.40;99.90
13330;DHT22;6734;48.638;8.896;2023-08-24T05:07:49;18.50;99.90
13330;DHT22;6734;48.638;8.896;2023-08-24T05:12:41;18.50;99.90
13330;DHT22;6734;48.638;8.896;2023-08-24T05:15:07;18.50;99.90
13330;DHT22;6734;48.638;8.896;2023-08-24T05:17:33;18.60;99.90
13330;DHT22;6734;48.638;8.896;2023-08-24T05:22:24;18.30;99.90
13330;DHT22;6734;48.638;8.896;2023-08-24T05:24:50;18.40;99.90
13330;DHT22;6734;48.638;8.896;2023-08-24T05:27:16;18.50;99.90
13330;DHT22;6734;48.638;8.896;2023-08-24T05:29:42;18.70;99.90
13330;DHT22;6734;48.638;8.896;2023-08-24T05:32:07;18.80;99.90
13330;DHT22;6734;48.638;8.896;2023-08-24T05:34:33;18.90;99.90
13330;DHT22;6734;48.638;8.896;2023-08-24T05:36:59;19.00;99.90
13330;DHT22;6734;48.638;8.896;2023-08-24T05:39:24;19.30;99.90
13330;DHT22;6734;48.638;8.896;2023-08-24T05:41:53;19.30;99.90
13330;DHT22;6734;48.638;8.896;2023-08-24T05:44:21;19.40;99.90
13330;DHT22;6734;48.638;8.896;2023-08-24T05:46:46;19.40;99.90
13330;DHT22;6734;48.638;8.896;2023-08-24T05:49:13;19.30;99.90
13330;DHT22;6734;48.638;8.896;2023-08-24T05:51:38;19.30;99.90
13330;DHT22;6734;48.638;8.896;2023-08-24T05:54:04;19.30;99.90
13330;DHT22;6734;48.638;8.896;2023-08-24T05:58:57;19.10;99.90
13330;DHT22;6734;48.638;8.896;2023-08-24T06:01:23;18.90;99.90
13330;DHT22;6734;48.638;8.896;2023-08-24T06:03:49;19.00;99.90
13330;DHT22;6734;48.638;8.896;2023-08-24T06:06:15;19.00;99.90
13330;DHT22;6734;48.638;8.896;2023-08-24T06:11:06;18.90;99.90
13330;DHT22;6734;48.638;8.896;2023-08-24T06:13:32;19.00;99.90
13330;DHT22;6734;48.638;8.896;2023-08-24T06:15:58;19.10;99.90
13330;DHT22;6734;48.638;8.896;2023-08-24T06:20:50;19.40;99.90
13330;DHT22;6734;48.638;8.896;2023-08-24T06:23:19;19.60;99.90
13330;DHT22;6734;48.638;8.896;2023-08-24T06:25:45;19.60;99.90
13330;DHT22;6734;48.638;8.896;2023-08-24T06:28:11;19.70;99.90
13330;DHT22;6734;48.638;8.896;2023-08-24T06:30:41;19.80;99.90
13330;DHT22;6734;48.638;8.896;2023-08-24T06:33:08;19.80;99.90
13330;DHT22;6734;48.638;8.896;2023-08-24T06:35:34;19.90;99.90
13330;DHT22;6734;48.638;8.896;2023-08-24T06:38:00;20.20;99.90
13330;DHT22;6734;48.638;8.896;2023-08-24T06:40:26;20.40;99.90
13330;DHT22;6734;48.638;8.896;2023-08-24T06:42:51;20.60;99.90
13330;DHT22;6734;48.638;8.896;2023-08-24T06:47:46;20.80;99.90
13330;DHT22;6734;48.638;8.896;2023-08-24T06:50:11;20.80;99.90
13330;DHT22;6734;48.638;8.896;2023-08-24T06:52:37;20.90;99.90
13330;DHT22;6734;48.638;8.896;2023-08-24T06:55:03;20.80;99.90
13330;DHT22;6734;48.638;8.896;2023-08-24T06:57:29;20.60;99.90
13330;DHT22;6734;48.638;8.896;2023-08-24T06:59:54;20.60;99.90
13330;DHT22;6734;48.638;8.896;2023-08-24T07:07:12;20.80;99.90
13330;DHT22;6734;48.638;8.896;2023-08-24T07:09:38;20.90;99.90
13330;DHT22;6734;48.638;8.896;2023-08-24T07:12:04;21.10;99.90
13330;DHT22;6734;48.638;8.896;2023-08-24T07:14:32;21.20;99.90
13330;DHT22;6734;48.638;8.896;2023-08-24T07:16:58;21.20;99.90
13330;DHT22;6734;48.638;8.896;2023-08-24T07:19:24;21.30;99.90
13330;DHT22;6734;48.638;8.896;2023-08-24T07:21:49;21.30;99.90
13330;DHT22;6734;48.638;8.896;2023-08-24T07:24:15;21.20;99.90
13330;DHT22;6734;48.638;8.896;2023-08-24T07:26:41;21.20;99.90
13330;DHT22;6734;48.638;8.896;2023-08-24T07:31:33;21.30;99.90
13330;DHT22;6734;48.638;8.896;2023-08-24T07:33:59;21.10;99.90
13330;DHT22;6734;48.638;8.896;2023-08-24T07:36:24;21.10;99.90
13330;DHT22;6734;48.638;8.896;2023-08-24T07:38:50;21.10;99.90
13330;DHT22;6734;48.638;8.896;2023-08-24T07:41:15;21.40;99.90
13330;DHT22;6734;48.638;8.896;2023-08-24T07:43:43;21.60;99.90
13330;DHT22;6734;48.638;8.896;2023-08-24T07:46:09;21.80;99.90
13330;DHT22;6734;48.638;8.896;2023-08-24T07:48:35;22.00;99.90
13330;DHT22;6734;48.638;8.896;2023-08-24T07:55:54;22.40;99.90
13330;DHT22;6734;48.638;8.896;2023-08-24T07:58:21;22.70;99.90
13330;DHT22;6734;48.638;8.896;2023-08-24T08:00:49;22.70;99.90
13330;DHT22;6734;48.638;8.896;2023-08-24T08:03:16;22.90;99.90
13330;DHT22;6734;48.638;8.896;2023-08-24T08:05:41;23.00;99.90
13330;DHT22;6734;48.638;8.896;2023-08-24T08:08:07;23.20;99.90
13330;DHT22;6734;48.638;8.896;2023-08-24T08:10:32;23.30;99.90
13330;DHT22;6734;48.638;8.896;2023-08-24T08:12:58;23.50;99.90
13330;DHT22;6734;48.638;8.896;2023-08-24T08:15:23;23.70;99.90
13330;DHT22;6734;48.638;8.896;2023-08-24T08:17:49;23.90;99.90
13330;DHT22;6734;48.638;8.896;2023-08-24T08:20:15;24.00;99.90
13330;DHT22;6734;48.638;8.896;2023-08-24T08:22:41;24.20;99.90
13330;DHT22;6734;48.638;8.896;2023-08-24T08:25:07;24.30;99.90
13330;DHT22;6734;48.638;8.896;2023-08-24T08:27:32;24.40;99.90
13330;DHT22;6734;48.638;8.896;2023-08-24T08:29:58;24.30;99.90
13330;DHT22;6734;48.638;8.896;2023-08-24T08:37:19;24.60;99.90
13330;DHT22;6734;48.638;8.896;2023-08-24T08:39:44;24.80;99.90
13330;DHT22;6734;48.638;8.896;2023-08-24T08:42:14;24.90;99.90
13330;DHT22;6734;48.638;8.896;2023-08-24T08:44:41;25.00;99.90
13330;DHT22;6734;48.638;8.896;2023-08-24T08:47:10;25.10;99.90
13330;DHT22;6734;48.638;8.896;2023-08-24T08:49:38;25.10;99.90
13330;DHT22;6734;48.638;8.896;2023-08-24T08:56:56;25.50;99.90
13330;DHT22;6734;48.638;8.896;2023-08-24T08:59:22;25.50;99.90
13330;DHT22;6734;48.638;8.896;2023-08-24T09:01:48;25.20;99.90
13330;DHT22;6734;48.638;8.896;2023-08-24T09:04:16;25.40;99.90
13330;DHT22;6734;48.638;8.896;2023-08-24T09:06:42;25.60;99.90
13330;DHT22;6734;48.638;8.896;2023-08-24T09:09:08;25.70;99.90
13330;DHT22;6734;48.638;8.896;2023-08-24T09:11:33;25.70;99.90
13330;DHT22;6734;48.638;8.896;2023-08-24T09:16:29;26.10;99.90
13330;DHT22;6734;48.638;8.896;2023-08-24T09:21:23;26.20;99.90
13330;DHT22;6734;48.638;8.896;2023-08-24T09:23:53;26.50;99.90
13330;DHT22;6734;48.638;8.896;2023-08-24T09:26:30;26.60;99.90
13330;DHT22;6734;48.638;8.896;2023-08-24T09:28:59;26.60;99.90
13330;DHT22;6734;48.638;8.896;2023-08-24T09:31:36;26.50;99.90
13330;DHT22;6734;48.638;8.896;2023-08-24T09:36:34;26.70;99.90
13330;DHT22;6734;48.638;8.896;2023-08-24T09:39:01;26.70;99.90
13330;DHT22;6734;48.638;8.896;2023-08-24T09:41:40;26.80;99.90
13330;DHT22;6734;48.638;8.896;2023-08-24T09:46:34;27.10;99.90
13330;DHT22;6734;48.638;8.896;2023-08-24T09:49:01;27.30;99.90
13330;DHT22;6734;48.638;8.896;2023-08-24T09:51:28;27.50;99.90
13330;DHT22;6734;48.638;8.896;2023-08-24T09:53:57;27.20;99.90
13330;DHT22;6734;48.638;8.896;2023-08-24T09:56:28;27.40;99.90
13330;DHT22;6734;48.638;8.896;2023-08-24T09:58:55;27.70;99.90
13330;DHT22;6734;48.638;8.896;2023-08-24T10:01:24;27.80;99.90
13330;DHT22;6734;48.638;8.896;2023-08-24T10:06:23;28.00;99.90
13330;DHT22;6734;48.638;8.896;2023-08-24T10:08:55;28.10;99.90
13330;DHT22;6734;48.638;8.896;2023-08-24T10:11:26;28.10;99.90
13330;DHT22;6734;48.638;8.896;2023-08-24T10:16:27;28.20;99.90
13330;DHT22;6734;48.638;8.896;2023-08-24T10:18:54;28.30;99.90
13330;DHT22;6734;48.638;8.896;2023-08-24T10:21:22;28.70;99.90
13330;DHT22;6734;48.638;8.896;2023-08-24T10:23:51;28.50;99.90
13330;DHT22;6734;48.638;8.896;2023-08-24T10:28:44;29.00;99.90
13330;DHT22;6734;48.638;8.896;2023-08-24T10:31:10;28.90;99.90
13330;DHT22;6734;48.638;8.896;2023-08-24T10:33:35;28.80;99.90
13330;DHT22;6734;48.638;8.896;2023-08-24T10:36:07;29.20;99.90
13330;DHT22;6734;48.638;8.896;2023-08-24T10:38:40;29.50;99.90
13330;DHT22;6734;48.638;8.896;2023-08-24T10:41:06;29.90;99.90
13330;DHT22;6734;48.638;8.896;2023-08-24T10:43:38;29.80;99.90
13330;DHT22;6734;48.638;8.896;2023-08-24T10:46:11;29.60;99.90
13330;DHT22;6734;48.638;8.896;2023-08-24T10:51:24;29.20;99.90
13330;DHT22;6734;48.638;8.896;2023-08-24T10:53:56;29.60;99.90
13330;DHT22;6734;48.638;8.896;2023-08-24T10:56:43;29.60;99.90
13330;DHT22;6734;48.638;8.896;2023-08-24T10:59:19;29.90;99.90
13330;DHT22;6734;48.638;8.896;2023-08-24T11:01:56;30.00;99.90
13330;DHT22;6734;48.638;8.896;2023-08-24T11:04:23;29.60;99.90
13330;DHT22;6734;48.638;8.896;2023-08-24T11:06:59;29.80;99.90
13330;DHT22;6734;48.638;8.896;2023-08-24T11:09:47;29.70;99.90
13330;DHT22;6734;48.638;8.896;2023-08-24T11:12:13;29.40;99.90
13330;DHT22;6734;48.638;8.896;2023-08-24T11:14:49;29.50;99.90
13330;DHT22;6734;48.638;8.896;2023-08-24T11:17:24;29.60;99.90
13330;DHT22;6734;48.638;8.896;2023-08-24T11:19:54;30.10;99.90
13330;DHT22;6734;48.638;8.896;2023-08-24T11:22:20;30.40;99.90
13330;DHT22;6734;48.638;8.896;2023-08-24T11:24:49;30.70;99.90
13330;DHT22;6734;48.638;8.896;2023-08-24T11:27:14;31.00;99.90
13330;DHT22;6734;48.638;8.896;2023-08-24T11:29:41;31.20;99.90
13330;DHT22;6734;48.638;8.896;2023-08-24T11:32:07;31.90;99.90
13330;DHT22;6734;48.638;8.896;2023-08-24T11:34:34;32.90;99.90
13330;DHT22;6734;48.638;8.896;2023-08-24T11:39:26;34.40;99.90
13330;DHT22;6734;48.638;8.896;2023-08-24T11:42:01;34.90;99.90
13330;DHT22;6734;48.638;8.896;2023-08-24T11:44:29;34.90;99.90
13330;DHT22;6734;48.638;8.896;2023-08-24T11:46:57;34.50;99.90
13330;DHT22;6734;48.638;8.896;2023-08-24T11:49:23;34.60;99.90
13330;DHT22;6734;48.638;8.896;2023-08-24T11:51:50;35.30;99.90
13330;DHT22;6734;48.638;8.896;2023-08-24T11:54:18;35.40;99.90
13330;DHT22;6734;48.638;8.896;2023-08-24T11:56:44;35.30;99.90
13330;DHT22;6734;48.638;8.896;2023-08-24T11:59:13;34.80;99.90
13330;DHT22;6734;48.638;8.896;2023-08-24T12:04:07;36.20;99.90
13330;DHT22;6734;48.638;8.896;2023-08-24T12:06:32;36.40;99.90
13330;DHT22;6734;48.638;8.896;2023-08-24T12:08:58;36.40;99.90
13330;DHT22;6734;48.638;8.896;2023-08-24T12:11:23;36.70;99.90
13330;DHT22;6734;48.638;8.896;2023-08-24T12:13:53;37.30;99.90
13330;DHT22;6734;48.638;8.896;2023-08-24T12:16:22;37.10;99.90
13330;DHT22;6734;48.638;8.896;2023-08-24T12:18:56;37.30;99.90
13330;DHT22;6734;48.638;8.896;2023-08-24T12:21:26;37.70;99.90
13330;DHT22;6734;48.638;8.896;2023-08-24T12:23:58;37.70;99.90
13330;DHT22;6734;48.638;8.896;2023-08-24T12:26:28;38.10;99.90
13330;DHT22;6734;48.638;8.896;2023-08-24T12:28:59;38.00;99.90
13330;DHT22;6734;48.638;8.896;2023-08-24T12:31:28;37.10;99.90
13330;DHT22;6734;48.638;8.896;2023-08-24T12:38:51;38.00;99.90
13330;DHT22;6734;48.638;8.896;2023-08-24T12:41:16;37.50;99.90
13330;DHT22;6734;48.638;8.896;2023-08-24T12:43:42;37.90;99.90
13330;DHT22;6734;48.638;8.896;2023-08-24T12:46:07;38.10;99.90
13330;DHT22;6734;48.638;8.896;2023-08-24T12:48:33;38.00;99.90
13330;DHT22;6734;48.638;8.896;2023-08-24T12:50:58;38.00;99.90
13330;DHT22;6734;48.638;8.896;2023-08-24T12:53:24;37.50;99.90
13330;DHT22;6734;48.638;8.896;2023-08-24T12:55:49;36.90;99.90
13330;DHT22;6734;48.638;8.896;2023-08-24T12:58:15;37.10;99.90
13330;DHT22;6734;48.638;8.896;2023-08-24T13:00:41;37.70;99.90
13330;DHT22;6734;48.638;8.896;2023-08-24T13:03:06;38.20;99.90
13330;DHT22;6734;48.638;8.896;2023-08-24T13:05:32;37.70;99.90
13330;DHT22;6734;48.638;8.896;2023-08-24T13:07:57;38.50;99.90
13330;DHT22;6734;48.638;8.896;2023-08-24T13:10:23;37.70;99.90
13330;DHT22;6734;48.638;8.896;2023-08-24T13:15:16;36.80;99.90
13330;DHT22;6734;48.638;8.896;2023-08-24T13:17:42;37.30;99.90
13330;DHT22;6734;48.638;8.896;2023-08-24T13:20:07;36.50;99.90
13330;DHT22;6734;48.638;8.896;2023-08-24T13:22:33;36.90;99.90
13330;DHT22;6734;48.638;8.896;2023-08-24T13:27:25;38.50;99.90
13330;DHT22;6734;48.638;8.896;2023-08-24T13:29:50;37.20;99.90
13330;DHT22;6734;48.638;8.896;2023-08-24T13:32:16;35.50;99.90
13330;DHT22;6734;48.638;8.896;2023-08-24T13:34:42;34.90;99.90
13330;DHT22;6734;48.638;8.896;2023-08-24T13:37:07;34.70;99.90
13330;DHT22;6734;48.638;8.896;2023-08-24T13:39:33;35.50;99.90
13330;DHT22;6734;48.638;8.896;2023-08-24T13:41:59;36.20;99.90
13330;DHT22;6734;48.638;8.896;2023-08-24T13:44:25;36.00;99.90
13330;DHT22;6734;48.638;8.896;2023-08-24T13:46:51;35.40;99.90
13330;DHT22;6734;48.638;8.896;2023-08-24T13:49:20;35.90;99.90
13330;DHT22;6734;48.638;8.896;2023-08-24T13:54:17;35.70;99.90
13330;DHT22;6734;48.638;8.896;2023-08-24T13:56:44;35.20;99.90
13330;DHT22;6734;48.638;8.896;2023-08-24T13:59:09;36.00;99.90
13330;DHT22;6734;48.638;8.896;2023-08-24T14:01:35;36.90;99.90
13330;DHT22;6734;48.638;8.896;2023-08-24T14:06:32;36.70;99.90
13330;DHT22;6734;48.638;8.896;2023-08-24T14:11:25;35.00;99.90
13330;DHT22;6734;48.638;8.896;2023-08-24T14:13:51;34.70;99.90
13330;DHT22;6734;48.638;8.896;2023-08-24T14:16:19;34.50;99.90
13330;DHT22;6734;48.638;8.896;2023-08-24T14:18:46;34.60;99.90
13330;DHT22;6734;48.638;8.896;2023-08-24T14:21:12;34.00;99.90
13330;DHT22;6734;48.638;8.896;2023-08-24T14:23:38;33.70;99.90
13330;DHT22;6734;48.638;8.896;2023-08-24T14:26:03;33.90;99.90
13330;DHT22;6734;48.638;8.896;2023-08-24T14:31:13;33.20;99.90
13330;DHT22;6734;48.638;8.896;2023-08-24T14:33:38;32.60;99.90
13330;DHT22;6734;48.638;8.896;2023-08-24T14:40:56;32.10;99.90
13330;DHT22;6734;48.638;8.896;2023-08-24T14:43:21;31.90;99.90
13330;DHT22;6734;48.638;8.896;2023-08-24T14:45:47;31.70;99.90
13330;DHT22;6734;48.638;8.896;2023-08-24T14:48:13;31.60;99.90
13330;DHT22;6734;48.638;8.896;2023-08-24T14:50:39;31.30;99.90
13330;DHT22;6734;48.638;8.896;2023-08-24T14:53:05;30.50;99.90
13330;DHT22;6734;48.638;8.896;2023-08-24T15:00:23;27.90;99.90
13330;DHT22;6734;48.638;8.896;2023-08-24T15:02:49;27.60;99.90
13330;DHT22;6734;48.638;8.896;2023-08-24T15:07:41;27.10;99.90
13330;DHT22;6734;48.638;8.896;2023-08-24T15:15:03;27.30;99.90
13330;DHT22;6734;48.638;8.896;2023-08-24T15:19:56;27.30;99.90
13330;DHT22;6734;48.638;8.896;2023-08-24T15:24:48;27.60;99.90
13330;DHT22;6734;48.638;8.896;2023-08-24T15:27:14;27.40;99.90
13330;DHT22;6734;48.638;8.896;2023-08-24T15:32:05;26.60;99.90
13330;DHT22;6734;48.638;8.896;2023-08-24T15:34:31;26.20;99.90
13330;DHT22;6734;48.638;8.896;2023-08-24T15:36:56;26.00;99.90
13330;DHT22;6734;48.638;8.896;2023-08-24T15:39:22;26.00;99.90
13330;DHT22;6734;48.638;8.896;2023-08-24T15:41:48;25.80;99.90
13330;DHT22;6734;48.638;8.896;2023-08-24T15:44:13;25.70;99.90
13330;DHT22;6734;48.638;8.896;2023-08-24T15:46:39;25.40;99.90
13330;DHT22;6734;48.638;8.896;2023-08-24T15:49:04;25.30;99.90
13330;DHT22;6734;48.638;8.896;2023-08-24T15:51:30;25.40;99.90
13330;DHT22;6734;48.638;8.896;2023-08-24T15:53:56;25.20;99.90
13330;DHT22;6734;48.638;8.896;2023-08-24T15:56:22;25.20;99.90
13330;DHT22;6734;48.638;8.896;2023-08-24T15:58:48;25.60;99.90
13330;DHT22;6734;48.638;8.896;2023-08-24T16:01:13;25.60;99.90
13330;DHT22;6734;48.638;8.896;2023-08-24T16:03:39;25.80;99.90
13330;DHT22;6734;48.638;8.896;2023-08-24T16:06:06;25.80;99.90
13330;DHT22;6734;48.638;8.896;2023-08-24T16:08:32;25.90;99.90
13330;DHT22;6734;48.638;8.896;2023-08-24T16:10:58;26.00;99.90
13330;DHT22;6734;48.638;8.896;2023-08-24T16:13:24;25.70;99.90
13330;DHT22;6734;48.638;8.896;2023-08-24T16:15:50;25.70;99.90
13330;DHT22;6734;48.638;8.896;2023-08-24T16:18:19;25.60;99.90
13330;DHT22;6734;48.638;8.896;2023-08-24T16:20:45;25.50;99.90
13330;DHT22;6734;48.638;8.896;2023-08-24T16:23:10;25.40;99.90
13330;DHT22;6734;48.638;8.896;2023-08-24T16:28:04;25.40;99.90
13330;DHT22;6734;48.638;8.896;2023-08-24T16:32:55;25.50;99.90
13330;DHT22;6734;48.638;8.896;2023-08-24T16:35:21;25.60;99.90
13330;DHT22;6734;48.638;8.896;2023-08-24T16:40:12;25.50;99.90
13330;DHT22;6734;48.638;8.896;2023-08-24T16:42:38;25.40;99.90
13330;DHT22;6734;48.638;8.896;2023-08-24T16:45:03;25.20;99.90
13330;DHT22;6734;48.638;8.896;2023-08-24T16:47:29;25.10;99.90
13330;DHT22;6734;48.638;8.896;2023-08-24T16:49:55;25.10;99.90
13330;DHT22;6734;48.638;8.896;2023-08-24T16:52:20;25.00;99.90
13330;DHT22;6734;48.638;8.896;2023-08-24T16:57:13;25.10;99.90
13330;DHT22;6734;48.638;8.896;2023-08-24T17:02:05;24.80;99.90
13330;DHT22;6734;48.638;8.896;2023-08-24T17:04:31;24.90;99.90
13330;DHT22;6734;48.638;8.896;2023-08-24T17:06:57;24.90;99.90
13330;DHT22;6734;48.638;8.896;2023-08-24T17:09:22;24.70;99.90
13330;DHT22;6734;48.638;8.896;2023-08-24T17:11:48;24.70;99.90
13330;DHT22;6734;48.638;8.896;2023-08-24T17:14:14;24.70;99.90
13330;DHT22;6734;48.638;8.896;2023-08-24T17:16:40;24.70;99.90
13330;DHT22;6734;48.638;8.896;2023-08-24T17:19:05;24.70;99.90
13330;DHT22;6734;48.638;8.896;2023-08-24T17:21:32;24.70;99.90
13330;DHT22;6734;48.638;8.896;2023-08-24T17:26:23;24.50;99.90
13330;DHT22;6734;48.638;8.896;2023-08-24T17:28:49;24.40;99.90
13330;DHT22;6734;48.638;8.896;2023-08-24T17:31:15;24.40;99.90
13330;DHT22;6734;48.638;8.896;2023-08-24T17:33:41;24.40;99.90
13330;DHT22;6734;48.638;8.896;2023-08-24T17:36:06;24.40;99.90
13330;DHT22;6734;48.638;8.896;2023-08-24T17:38:32;24.40;99.90
13330;DHT22;6734;48.638;8.896;2023-08-24T17:41:01;24.50;99.90
13330;DHT22;6734;48.638;8.896;2023-08-24T17:45:54;24.30;99.90
13330;DHT22;6734;48.638;8.896;2023-08-24T17:50:55;24.40;99.90
13330;DHT22;6734;48.638;8.896;2023-08-24T17:53:22;24.30;99.90
13330;DHT22;6734;48.638;8.896;2023-08-24T17:55:53;24.30;99.90
13330;DHT22;6734;48.638;8.896;2023-08-24T17:58:18;24.30;99.90
13330;DHT22;6734;48.638;8.896;2023-08-24T18:00:44;24.50;99.90
13330;DHT22;6734;48.638;8.896;2023-08-24T18:03:09;24.50;99.90
13330;DHT22;6734;48.638;8.896;2023-08-24T18:05:35;24.50;99.90
13330;DHT22;6734;48.638;8.896;2023-08-24T18:08:01;24.50;99.90
13330;DHT22;6734;48.638;8.896;2023-08-24T18:12:53;24.60;99.90
13330;DHT22;6734;48.638;8.896;2023-08-24T18:17:44;24.40;99.90
13330;DHT22;6734;48.638;8.896;2023-08-24T18:20:10;24.50;99.90
13330;DHT22;6734;48.638;8.896;2023-08-24T18:25:02;24.10;99.90
13330;DHT22;6734;48.638;8.896;2023-08-24T18:27:28;23.90;99.90
13330;DHT22;6734;48.638;8.896;2023-08-24T18:29:54;23.80;99.90
13330;DHT22;6734;48.638;8.896;2023-08-24T18:32:19;23.80;99.90
13330;DHT22;6734;48.638;8.896;2023-08-24T18:34:45;23.80;99.90
13330;DHT22;6734;48.638;8.896;2023-08-24T18:37:11;23.70;99.90
13330;DHT22;6734;48.638;8.896;2023-08-24T18:39:36;23.70;99.90
13330;DHT22;6734;48.638;8.896;2023-08-24T18:42:04;23.60;99.90
13330;DHT22;6734;48.638;8.896;2023-08-24T18:44:30;23.50;99.90
13330;DHT22;6734;48.638;8.896;2023-08-24T18:46:56;23.50;99.90
13330;DHT22;6734;48.638;8.896;2023-08-24T18:49:21;23.50;99.90
13330;DHT22;6734;48.638;8.896;2023-08-24T18:56:42;23.40;99.90
13330;DHT22;6734;48.638;8.896;2023-08-24T18:59:08;23.40;99.90
13330;DHT22;6734;48.638;8.896;2023-08-24T19:01:34;23.30;99.90
13330;DHT22;6734;48.638;8.896;2023-08-24T19:06:26;22.50;99.90
13330;DHT22;6734;48.638;8.896;2023-08-24T19:08:52;22.20;99.90
13330;DHT22;6734;48.638;8.896;2023-08-24T19:11:18;21.80;99.90
13330;DHT22;6734;48.638;8.896;2023-08-24T19:16:10;21.60;99.90
13330;DHT22;6734;48.638;8.896;2023-08-24T19:18:35;21.60;99.90
13330;DHT22;6734;48.638;8.896;2023-08-24T19:21:04;21.50;99.90
13330;DHT22;6734;48.638;8.896;2023-08-24T19:23:29;21.50;99.90
13330;DHT22;6734;48.638;8.896;2023-08-24T19:28:21;21.30;99.90
13330;DHT22;6734;48.638;8.896;2023-08-24T19:30:47;21.20;99.90
13330;DHT22;6734;48.638;8.896;2023-08-24T19:33:19;21.10;99.90
13330;DHT22;6734;48.638;8.896;2023-08-24T19:40:37;21.20;99.90
13330;DHT22;6734;48.638;8.896;2023-08-24T19:43:04;21.20;99.90
13330;DHT22;6734;48.638;8.896;2023-08-24T19:45:30;21.20;99.90
13330;DHT22;6734;48.638;8.896;2023-08-24T19:52:51;21.20;99.90
13330;DHT22;6734;48.638;8.896;2023-08-24T19:57:42;21.00;99.90
13330;DHT22;6734;48.638;8.896;2023-08-24T20:00:10;20.90;99.90
13330;DHT22;6734;48.638;8.896;2023-08-24T20:02:37;20.70;99.90
13330;DHT22;6734;48.638;8.896;2023-08-24T20:05:03;20.60;99.90
13330;DHT22;6734;48.638;8.896;2023-08-24T20:07:29;20.50;99.90
13330;DHT22;6734;48.638;8.896;2023-08-24T20:12:22;20.30;99.90
13330;DHT22;6734;48.638;8.896;2023-08-24T20:14:48;20.20;99.90